createdAt,value
2022-11-11T00:00:54.238Z,0
2022-11-11T00:02:59.938Z,0
2022-11-11T00:05:06.538Z,0
2022-11-11T00:07:13.262Z,0
2022-11-11T00:08:16.487Z,0
2022-11-11T00:10:22.950Z,0
2022-11-11T00:12:30.206Z,0
2022-11-11T00:13:32.644Z,0
2022-11-11T00:14:34.888Z,0
2022-11-11T00:15:38.275Z,0
2022-11-11T00:17:44.382Z,0
2022-11-11T00:18:47.778Z,0
2022-11-11T00:19:51.575Z,0
2022-11-11T00:20:54.732Z,0
2022-11-11T00:23:01.126Z,0
2022-11-11T00:25:06.807Z,0
2022-11-11T00:26:42.814Z,0
2022-11-11T00:27:46.640Z,0
2022-11-11T00:28:49.273Z,0
2022-11-11T00:30:55.100Z,0
2022-11-11T00:33:00.401Z,0
2022-11-11T00:34:03.786Z,0
2022-11-11T00:35:07.428Z,0
2022-11-11T00:36:10.502Z,0
2022-11-11T00:38:16.923Z,0
2022-11-11T00:40:22.737Z,0
2022-11-11T00:41:25.876Z,0
2022-11-11T00:43:32.902Z,0
2022-11-11T00:45:39.378Z,0
2022-11-11T00:47:45.697Z,0
2022-11-11T00:48:48.424Z,0
2022-11-11T00:50:54.879Z,0
2022-11-11T00:53:01.233Z,0
2022-11-11T00:55:07.371Z,0
2022-11-11T00:56:10.630Z,0
2022-11-11T00:58:17.616Z,0
2022-11-11T01:00:23.995Z,0
2022-11-11T01:02:31.176Z,0
2022-11-11T01:03:33.017Z,0
2022-11-11T01:05:39.243Z,0
2022-11-11T01:07:47.375Z,0
2022-11-11T01:09:53.656Z,0
2022-11-11T01:10:56.957Z,0
2022-11-11T01:13:03.410Z,0
2022-11-11T01:15:11.285Z,0
2022-11-11T01:16:14.420Z,0
2022-11-11T01:17:18.046Z,0
2022-11-11T01:18:21.495Z,0
2022-11-11T01:20:28.680Z,0
2022-11-11T01:22:36.484Z,0
2022-11-11T01:23:39.795Z,0
2022-11-11T01:25:45.947Z,0
2022-11-11T01:27:51.982Z,0
2022-11-11T01:28:55.757Z,0
2022-11-11T01:29:59.613Z,0
2022-11-11T01:31:03.995Z,0
2022-11-11T01:33:10.261Z,0
2022-11-11T01:35:16.592Z,0
2022-11-11T01:36:19.872Z,0
2022-11-11T01:38:29.777Z,0
2022-11-11T01:40:36.826Z,0
2022-11-11T01:42:43.239Z,0
2022-11-11T01:43:46.563Z,0
2022-11-11T01:45:54.438Z,0
2022-11-11T01:48:35.457Z,0
2022-11-11T01:50:42.721Z,0
2022-11-11T01:51:46.078Z,0
2022-11-11T01:53:52.735Z,0
2022-11-11T01:55:59.853Z,0
2022-11-11T01:57:03.614Z,0
2022-11-11T01:59:10.063Z,0
2022-11-11T02:01:16.582Z,0
2022-11-11T02:02:20.315Z,0
2022-11-11T02:04:30.174Z,0
2022-11-11T02:06:37.590Z,0
2022-11-11T02:08:45.157Z,0
2022-11-11T02:09:48.728Z,0
2022-11-11T02:11:56.492Z,0
2022-11-11T02:14:03.859Z,0
2022-11-11T02:16:09.744Z,0
2022-11-11T02:17:13.096Z,0
2022-11-11T02:19:21.166Z,0
2022-11-11T02:21:26.667Z,0
2022-11-11T02:22:30.484Z,0
2022-11-11T02:23:33.731Z,0
2022-11-11T02:24:37.154Z,0
2022-11-11T02:26:44.744Z,0
2022-11-11T02:27:48.792Z,0
2022-11-11T02:29:55.340Z,0
2022-11-11T02:32:02.831Z,0
2022-11-11T02:34:10.784Z,0
2022-11-11T02:35:14.360Z,0
2022-11-11T02:37:21.377Z,0
2022-11-11T02:40:07.653Z,0
2022-11-11T02:42:15.068Z,0
2022-11-11T02:44:22.621Z,0
2022-11-11T02:45:26.103Z,0
2022-11-11T02:46:30.310Z,0
2022-11-11T02:47:33.672Z,0
2022-11-11T02:49:41.203Z,0
2022-11-11T02:51:48.967Z,0
2022-11-11T02:52:53.065Z,0
2022-11-11T02:55:00.775Z,0
2022-11-11T02:57:09.485Z,0
2022-11-11T02:59:17.326Z,0
2022-11-11T03:00:21.260Z,0
2022-11-11T03:02:30.037Z,0
2022-11-11T03:04:38.758Z,0
2022-11-11T03:06:46.506Z,0
2022-11-11T03:08:55.687Z,0
2022-11-11T03:09:59.120Z,0
2022-11-11T03:12:06.759Z,0
2022-11-11T03:14:14.685Z,0
2022-11-11T03:16:22.471Z,0
2022-11-11T03:17:26.309Z,0
2022-11-11T03:19:33.414Z,0
2022-11-11T03:22:56.414Z,0
2022-11-11T03:23:59.144Z,0
2022-11-11T03:25:02.425Z,0
2022-11-11T03:27:08.936Z,0
2022-11-11T03:29:14.810Z,0
2022-11-11T03:31:21.903Z,0
2022-11-11T03:32:24.333Z,0
2022-11-11T03:34:30.752Z,0
2022-11-11T03:36:37.201Z,0
2022-11-11T03:38:42.861Z,0
2022-11-11T03:39:46.134Z,0
2022-11-11T03:41:51.865Z,0
2022-11-11T03:43:59.243Z,0
2022-11-11T03:46:04.969Z,0
2022-11-11T03:47:08.417Z,0
2022-11-11T03:49:14.101Z,0
2022-11-11T03:51:20.607Z,0
2022-11-11T03:53:28.561Z,0
2022-11-11T03:54:32.112Z,0
2022-11-11T03:56:38.882Z,0
2022-11-11T03:58:44.289Z,0
2022-11-11T04:00:50.772Z,0
2022-11-11T04:01:55.118Z,0
2022-11-11T04:04:01.573Z,0
2022-11-11T04:06:07.250Z,0
2022-11-11T04:08:13.665Z,0
2022-11-11T04:09:16.945Z,0
2022-11-11T04:10:20.337Z,0
2022-11-11T04:11:23.399Z,0
2022-11-11T04:13:29.933Z,0
2022-11-11T04:14:33.669Z,0
2022-11-11T04:15:36.566Z,0
2022-11-11T04:16:38.936Z,0
2022-11-11T04:18:45.629Z,0
2022-11-11T04:19:49.048Z,0
2022-11-11T04:20:51.545Z,0
2022-11-11T04:21:53.993Z,0
2022-11-11T04:24:00.020Z,0
2022-11-11T04:25:03.495Z,0
2022-11-11T04:26:06.119Z,0
2022-11-11T04:27:09.193Z,0
2022-11-11T04:29:14.805Z,0
2022-11-11T04:30:17.804Z,0
2022-11-11T04:32:24.942Z,0
2022-11-11T04:34:33.265Z,0
2022-11-11T04:36:39.514Z,0
2022-11-11T04:37:42.619Z,0
2022-11-11T04:38:45.995Z,0
2022-11-11T04:39:49.047Z,0
2022-11-11T04:42:10.726Z,0
2022-11-11T04:44:16.266Z,0
2022-11-11T04:45:19.138Z,0
2022-11-11T04:47:24.934Z,0
2022-11-11T04:49:31.437Z,0
2022-11-11T04:50:34.897Z,0
2022-11-11T04:51:38.602Z,0
2022-11-11T04:52:41.420Z,0
2022-11-11T04:54:47.320Z,0
2022-11-11T04:55:50.911Z,0
2022-11-11T04:56:54.389Z,0
2022-11-11T04:57:56.934Z,0
2022-11-11T05:00:03.214Z,0
2022-11-11T05:01:06.488Z,0
2022-11-11T05:02:09.840Z,0
2022-11-11T05:03:13.069Z,0
2022-11-11T05:05:19.892Z,0
2022-11-11T05:07:26.428Z,0
2022-11-11T05:08:29.533Z,0
2022-11-11T05:10:35.482Z,0
2022-11-11T05:12:41.992Z,0
2022-11-11T05:14:47.923Z,0
2022-11-11T05:15:50.916Z,0
2022-11-11T05:17:56.839Z,0
2022-11-11T05:20:03.412Z,0
2022-11-11T05:21:06.698Z,0
2022-11-11T05:23:12.716Z,0
2022-11-11T05:25:19.257Z,0
2022-11-11T05:27:25.271Z,0
2022-11-11T05:28:28.354Z,0
2022-11-11T05:30:35.361Z,0
2022-11-11T05:32:42.255Z,0
2022-11-11T05:34:48.962Z,0
2022-11-11T05:35:52.724Z,0
2022-11-11T05:38:00.002Z,0
2022-11-11T05:40:05.963Z,0
2022-11-11T05:42:12.284Z,0
2022-11-11T05:43:15.346Z,0
2022-11-11T05:44:18.599Z,0
2022-11-11T05:45:21.788Z,0
2022-11-11T05:47:27.804Z,0
2022-11-11T05:48:30.909Z,0
2022-11-11T05:49:33.977Z,0
2022-11-11T05:50:37.254Z,0
2022-11-11T05:52:44.448Z,0
2022-11-11T05:53:47.972Z,0
2022-11-11T05:54:50.751Z,0
2022-11-11T05:55:53.754Z,0
2022-11-11T05:57:59.276Z,0
2022-11-11T05:59:02.673Z,0
2022-11-11T06:00:05.582Z,0
2022-11-11T06:01:08.577Z,0
2022-11-11T06:03:14.572Z,0
2022-11-11T06:05:22.604Z,0
2022-11-11T06:06:25.154Z,0
2022-11-11T06:08:30.740Z,0
2022-11-11T06:10:37.732Z,0
2022-11-11T06:12:44.036Z,0
2022-11-11T06:13:46.461Z,0
2022-11-11T06:15:52.719Z,0
2022-11-11T06:17:58.670Z,0
2022-11-11T06:20:05.201Z,0
2022-11-11T06:21:08.934Z,0
2022-11-11T06:23:15.477Z,0
2022-11-11T06:25:26.058Z,0
2022-11-11T06:27:31.219Z,0
2022-11-11T06:28:33.928Z,0
2022-11-11T06:30:53.957Z,0
2022-11-11T06:32:59.970Z,1
2022-11-11T06:35:05.913Z,1
2022-11-11T06:36:08.995Z,1
2022-11-11T06:38:15.214Z,1
2022-11-11T06:40:24.409Z,1
2022-11-11T06:42:31.863Z,2
2022-11-11T06:43:34.987Z,2
2022-11-11T06:45:40.579Z,3
2022-11-11T06:47:46.519Z,3
2022-11-11T06:48:50.033Z,3
2022-11-11T06:49:52.758Z,4
2022-11-11T06:50:56.137Z,4
2022-11-11T06:53:01.745Z,4
2022-11-11T06:54:04.668Z,4
2022-11-11T06:55:08.217Z,5
2022-11-11T06:56:11.423Z,5
2022-11-11T06:58:18.165Z,6
2022-11-11T07:00:25.334Z,6
2022-11-11T07:01:28.295Z,7
2022-11-11T07:03:34.899Z,7
2022-11-11T07:05:41.071Z,7
2022-11-11T07:07:47.550Z,8
2022-11-11T07:08:50.624Z,8
2022-11-11T07:10:56.958Z,8
2022-11-11T07:13:03.653Z,9
2022-11-11T07:15:09.543Z,10
2022-11-11T07:16:12.351Z,11
2022-11-11T07:18:18.633Z,11
2022-11-11T07:20:25.278Z,11
2022-11-11T07:22:38.803Z,13
2022-11-11T07:23:41.806Z,14
2022-11-11T07:24:44.523Z,13
2022-11-11T07:25:47.068Z,13
2022-11-11T07:28:01.073Z,17
2022-11-11T07:30:07.150Z,19
2022-11-11T07:31:09.409Z,19
2022-11-11T07:33:16.479Z,19
2022-11-11T07:35:26.578Z,18
2022-11-11T07:37:32.819Z,18
2022-11-11T07:38:36.268Z,19
2022-11-11T07:40:41.499Z,21
2022-11-11T07:42:47.692Z,22
2022-11-11T07:44:54.133Z,22
2022-11-11T07:45:57.578Z,23
2022-11-11T07:48:03.187Z,22
2022-11-11T07:50:12.805Z,24
2022-11-11T07:52:19.047Z,24
2022-11-11T07:53:23.859Z,24
2022-11-11T07:54:27.312Z,25
2022-11-11T07:55:30.384Z,27
2022-11-11T07:57:36.292Z,29
2022-11-11T07:59:43.127Z,30
2022-11-11T08:00:46.585Z,30
2022-11-11T08:01:50.328Z,29
2022-11-11T08:03:09.672Z,29
2022-11-11T08:04:13.058Z,28
2022-11-11T08:05:16.109Z,24
2022-11-11T08:07:26.611Z,28
2022-11-11T08:09:32.750Z,31
2022-11-11T08:10:36.391Z,29
2022-11-11T08:12:42.306Z,26
2022-11-11T08:14:48.203Z,28
2022-11-11T08:16:54.068Z,31
2022-11-11T08:17:56.791Z,29
2022-11-11T08:20:02.938Z,29
2022-11-11T08:22:13.944Z,28
2022-11-11T08:25:07.496Z,30
2022-11-11T08:27:15.891Z,29
2022-11-11T08:28:19.445Z,30
2022-11-11T08:30:26.134Z,30
2022-11-11T08:32:33.126Z,34
2022-11-11T08:34:39.752Z,33
2022-11-11T08:35:43.203Z,30
2022-11-11T08:37:50.364Z,33
2022-11-11T08:39:58.297Z,32
2022-11-11T08:41:01.436Z,32
2022-11-11T08:43:07.718Z,32
2022-11-11T08:45:14.833Z,32
2022-11-11T08:47:21.829Z,35
2022-11-11T08:48:24.573Z,38
2022-11-11T08:50:30.716Z,34
2022-11-11T08:51:46.370Z,36
2022-11-11T08:52:50.344Z,36
2022-11-11T08:54:55.878Z,32
2022-11-11T08:57:01.817Z,35
2022-11-11T08:58:04.889Z,34
2022-11-11T09:00:11.267Z,39
2022-11-11T09:02:18.999Z,35
2022-11-11T09:04:57.029Z,36
2022-11-11T09:07:03.778Z,38
2022-11-11T09:08:07.452Z,38
2022-11-11T09:09:09.721Z,35
2022-11-11T09:10:12.509Z,37
2022-11-11T09:12:19.532Z,35
2022-11-11T09:13:24.919Z,34
2022-11-11T09:14:28.009Z,35
2022-11-11T09:15:31.122Z,35
2022-11-11T09:17:38.481Z,32
2022-11-11T09:19:44.815Z,35
2022-11-11T09:20:47.528Z,39
2022-11-11T09:22:53.493Z,35
2022-11-11T09:25:00.944Z,35
2022-11-11T09:27:07.205Z,40
2022-11-11T09:28:10.618Z,39
2022-11-11T09:30:17.331Z,48
2022-11-11T09:31:51.208Z,53
2022-11-11T09:32:54.526Z,51
2022-11-11T09:35:01.476Z,57
2022-11-11T09:36:04.712Z,56
2022-11-11T09:38:09.825Z,56
2022-11-11T09:40:15.764Z,49
2022-11-11T09:41:19.035Z,53
2022-11-11T09:42:22.551Z,52
2022-11-11T09:43:28.611Z,48
2022-11-11T09:44:31.686Z,45
2022-11-11T09:46:37.776Z,45
2022-11-11T09:48:45.267Z,48
2022-11-11T09:49:48.522Z,46
2022-11-11T09:51:54.774Z,44
2022-11-11T09:54:00.562Z,46
2022-11-11T09:55:04.142Z,47
2022-11-11T09:56:33.643Z,51
2022-11-11T09:57:36.780Z,55
2022-11-11T09:59:43.699Z,54
2022-11-11T10:01:50.254Z,58
2022-11-11T10:02:52.988Z,54
2022-11-11T10:03:56.709Z,59
2022-11-11T10:05:00.441Z,61
2022-11-11T10:07:07.466Z,58
2022-11-11T10:08:10.692Z,61
2022-11-11T10:10:17.503Z,59
2022-11-11T10:12:23.577Z,54
2022-11-11T10:13:27.034Z,60
2022-11-11T10:15:32.801Z,57
2022-11-11T10:17:39.262Z,60
2022-11-11T10:18:42.254Z,64
2022-11-11T10:20:49.543Z,55
2022-11-11T10:22:15.619Z,56
2022-11-11T10:23:18.718Z,59
2022-11-11T10:24:22.115Z,58
2022-11-11T10:26:28.796Z,58
2022-11-11T10:28:34.813Z,54
2022-11-11T10:29:38.205Z,50
2022-11-11T10:31:45.405Z,54
2022-11-11T10:33:52.340Z,50
2022-11-11T10:34:56.009Z,50
2022-11-11T10:37:02.634Z,57
2022-11-11T10:39:07.727Z,52
2022-11-11T10:40:10.505Z,56
2022-11-11T10:42:18.297Z,56
2022-11-11T10:44:24.565Z,63
2022-11-11T10:46:31.096Z,61
2022-11-11T10:47:34.252Z,62
2022-11-11T10:48:45.679Z,61
2022-11-11T10:49:48.858Z,59
2022-11-11T10:51:55.506Z,71
2022-11-11T10:52:58.773Z,65
2022-11-11T10:55:05.019Z,68
2022-11-11T10:57:11.932Z,55
2022-11-11T10:58:15.371Z,65
2022-11-11T11:00:22.073Z,59
2022-11-11T11:02:28.280Z,59
2022-11-11T11:03:31.353Z,65
2022-11-11T11:05:36.876Z,61
2022-11-11T11:07:44.900Z,68
2022-11-11T11:08:48.268Z,58
2022-11-11T11:10:54.390Z,53
2022-11-11T11:11:57.491Z,60
2022-11-11T11:13:01.737Z,54
2022-11-11T11:14:05.252Z,64
2022-11-11T11:16:10.691Z,59
2022-11-11T11:17:13.492Z,57
2022-11-11T11:19:19.558Z,62
2022-11-11T11:21:25.939Z,59
2022-11-11T11:22:29.822Z,62
2022-11-11T11:24:45.501Z,59
2022-11-11T11:26:51.370Z,59
2022-11-11T11:28:58.311Z,54
2022-11-11T11:30:01.250Z,52
2022-11-11T11:32:08.857Z,57
2022-11-11T11:34:13.439Z,52
2022-11-11T11:35:16.880Z,55
2022-11-11T11:37:23.133Z,54
2022-11-11T11:39:31.954Z,58
2022-11-11T11:40:43.930Z,60
2022-11-11T11:42:50.162Z,55
2022-11-11T11:44:56.451Z,47
2022-11-11T11:46:09.193Z,50
2022-11-11T11:47:11.766Z,61
2022-11-11T11:48:47.171Z,60
2022-11-11T11:49:51.458Z,58
2022-11-11T11:50:54.402Z,65
2022-11-11T11:53:00.623Z,66
2022-11-11T11:55:07.526Z,74
2022-11-11T11:56:11.009Z,77
2022-11-11T11:58:16.269Z,61
2022-11-11T11:59:19.436Z,57
2022-11-11T12:00:23.100Z,59
2022-11-11T12:01:26.018Z,60
2022-11-11T12:03:32.912Z,81
2022-11-11T12:04:45.034Z,71
2022-11-11T12:06:52.129Z,88
2022-11-11T12:08:59.429Z,52
2022-11-11T12:10:03.155Z,55
2022-11-11T12:11:06.606Z,73
2022-11-11T12:12:09.670Z,94
2022-11-11T12:13:12.947Z,79
2022-11-11T12:14:15.684Z,77
2022-11-11T12:16:21.834Z,70
2022-11-11T12:18:29.427Z,61
2022-11-11T12:19:33.132Z,59
2022-11-11T12:21:39.021Z,53
2022-11-11T12:22:45.499Z,50
2022-11-11T12:24:52.458Z,56
2022-11-11T12:26:59.611Z,55
2022-11-11T12:28:02.984Z,55
2022-11-11T12:30:08.751Z,53
2022-11-11T12:31:11.821Z,59
2022-11-11T12:32:15.148Z,53
2022-11-11T12:33:18.425Z,50
2022-11-11T12:35:24.695Z,52
2022-11-11T12:36:28.066Z,54
2022-11-11T12:38:35.206Z,61
2022-11-11T12:40:40.540Z,55
2022-11-11T12:41:44.501Z,55
2022-11-11T12:43:51.032Z,63
2022-11-11T12:44:54.082Z,66
2022-11-11T12:46:59.688Z,67
2022-11-11T12:49:06.482Z,78
2022-11-11T12:50:09.964Z,81
2022-11-11T12:52:16.960Z,102
2022-11-11T12:53:19.754Z,114
2022-11-11T12:55:25.421Z,105
2022-11-11T12:57:32.371Z,137
2022-11-11T12:58:43.863Z,129
2022-11-11T13:00:50.673Z,171
2022-11-11T13:02:56.393Z,148
2022-11-11T13:03:59.727Z,123
2022-11-11T13:06:06.684Z,117
2022-11-11T13:07:10.260Z,110
2022-11-11T13:09:16.806Z,92
2022-11-11T13:11:27.531Z,105
2022-11-11T13:12:30.991Z,88
2022-11-11T13:14:37.744Z,56
2022-11-11T13:16:44.343Z,56
2022-11-11T13:17:47.974Z,72
2022-11-11T13:18:50.764Z,58
2022-11-11T13:19:53.879Z,55
2022-11-11T13:21:59.632Z,53
2022-11-11T13:23:02.738Z,58
2022-11-11T13:25:22.200Z,49
2022-11-11T13:27:27.923Z,47
2022-11-11T13:29:34.519Z,54
2022-11-11T13:30:38.113Z,47
2022-11-11T13:32:44.372Z,39
2022-11-11T13:33:47.140Z,44
2022-11-11T13:34:50.213Z,41
2022-11-11T13:35:54.166Z,41
2022-11-11T13:38:00.615Z,39
2022-11-11T13:39:04.968Z,40
2022-11-11T13:41:11.127Z,48
2022-11-11T13:43:16.475Z,40
2022-11-11T13:44:19.689Z,50
2022-11-11T13:46:26.962Z,72
2022-11-11T13:48:34.255Z,66
2022-11-11T13:49:37.057Z,52
2022-11-11T13:51:44.893Z,49
2022-11-11T13:52:48.095Z,43
2022-11-11T13:54:54.181Z,43
2022-11-11T13:57:00.493Z,36
2022-11-11T13:59:06.215Z,35
2022-11-11T14:00:10.283Z,30
2022-11-11T14:02:18.022Z,29
2022-11-11T14:04:24.032Z,27
2022-11-11T14:05:26.615Z,26
2022-11-11T14:07:34.091Z,26
2022-11-11T14:08:37.654Z,25
2022-11-11T14:10:43.312Z,27
2022-11-11T14:12:49.841Z,25
2022-11-11T14:13:53.216Z,25
2022-11-11T14:14:56.833Z,23
2022-11-11T14:16:00.447Z,25
2022-11-11T14:18:07.351Z,27
2022-11-11T14:19:10.355Z,25
2022-11-11T14:21:15.778Z,26
2022-11-11T14:23:22.953Z,23
2022-11-11T14:24:26.255Z,22
2022-11-11T14:26:32.652Z,23
2022-11-11T14:28:38.499Z,22
2022-11-11T14:29:41.649Z,21
2022-11-11T14:30:44.828Z,22
2022-11-11T14:31:54.963Z,24
2022-11-11T14:32:58.934Z,21
2022-11-11T14:34:02.741Z,19
2022-11-11T14:35:06.754Z,18
2022-11-11T14:37:13.539Z,16
2022-11-11T14:39:19.646Z,16
2022-11-11T14:40:22.943Z,14
2022-11-11T14:42:29.290Z,15
2022-11-11T14:43:32.949Z,14
2022-11-11T14:44:35.834Z,13
2022-11-11T14:45:39.099Z,13
2022-11-11T14:47:45.558Z,12
2022-11-11T14:48:49.250Z,12
2022-11-11T14:49:53.065Z,11
2022-11-11T14:50:56.146Z,10
2022-11-11T14:53:02.259Z,10
2022-11-11T14:54:05.142Z,9
2022-11-11T14:56:11.206Z,8
2022-11-11T14:57:14.517Z,8
2022-11-11T14:59:21.281Z,8
2022-11-11T15:01:27.746Z,7
2022-11-11T15:02:31.132Z,6
2022-11-11T15:03:34.108Z,6
2022-11-11T15:04:37.989Z,6
2022-11-11T15:06:45.423Z,5
2022-11-11T15:07:48.446Z,5
2022-11-11T15:09:54.047Z,4
2022-11-11T15:12:00.684Z,4
2022-11-11T15:13:04.071Z,3
2022-11-11T15:14:06.679Z,3
2022-11-11T15:15:10.312Z,3
2022-11-11T15:16:13.297Z,3
2022-11-11T15:17:16.396Z,2
2022-11-11T15:18:19.381Z,2
2022-11-11T15:19:22.482Z,2
2022-11-11T15:20:26.425Z,2
2022-11-11T15:21:29.664Z,2
2022-11-11T15:22:33.089Z,1
2022-11-11T15:24:38.973Z,1
2022-11-11T15:25:42.646Z,1
2022-11-11T15:26:46.546Z,1
2022-11-11T15:27:50.433Z,1
2022-11-11T15:29:59.922Z,1
2022-11-11T15:31:02.460Z,1
2022-11-11T15:33:08.645Z,0
2022-11-11T15:34:11.646Z,0
2022-11-11T15:36:19.044Z,0
2022-11-11T15:38:25.769Z,0
2022-11-11T15:39:28.561Z,0
2022-11-11T15:40:31.757Z,0
2022-11-11T15:41:37.572Z,0
2022-11-11T15:43:44.065Z,0
2022-11-11T15:44:47.165Z,0
2022-11-11T15:46:52.960Z,0
2022-11-11T15:48:58.898Z,0
2022-11-11T15:50:02.245Z,0
2022-11-11T15:52:09.105Z,0
2022-11-11T15:54:16.304Z,0
2022-11-11T15:55:19.201Z,0
2022-11-11T15:57:26.071Z,0
2022-11-11T15:59:33.899Z,0
2022-11-11T16:00:37.485Z,0
2022-11-11T16:02:43.918Z,0
2022-11-11T16:03:46.453Z,0
2022-11-11T16:04:58.125Z,0
2022-11-11T16:06:00.950Z,0
2022-11-11T16:08:08.056Z,0
2022-11-11T16:09:11.496Z,0
2022-11-11T16:10:14.586Z,0
2022-11-11T16:11:17.730Z,0
2022-11-11T16:13:23.049Z,0
2022-11-11T16:15:30.571Z,0
2022-11-11T16:16:33.791Z,0
2022-11-11T16:17:36.320Z,0
2022-11-11T16:18:39.686Z,0
2022-11-11T16:19:51.397Z,0
2022-11-11T16:20:54.572Z,0
2022-11-11T16:21:57.924Z,0
2022-11-11T16:24:04.780Z,0
2022-11-11T16:26:10.771Z,0
2022-11-11T16:27:14.145Z,0
2022-11-11T16:29:20.015Z,0
2022-11-11T16:30:23.060Z,0
2022-11-11T16:32:29.446Z,0
2022-11-11T16:34:35.424Z,0
2022-11-11T16:36:41.513Z,0
2022-11-11T16:37:45.213Z,0
2022-11-11T16:39:52.949Z,0
2022-11-11T16:41:58.926Z,0
2022-11-11T16:43:02.277Z,0
2022-11-11T16:45:07.947Z,0
2022-11-11T16:46:11.179Z,0
2022-11-11T16:47:14.011Z,0
2022-11-11T16:48:17.179Z,0
2022-11-11T16:49:19.982Z,0
2022-11-11T16:50:23.157Z,0
2022-11-11T16:51:26.317Z,0
2022-11-11T16:53:32.914Z,0
2022-11-11T16:54:36.179Z,0
2022-11-11T16:56:42.715Z,0
2022-11-11T16:58:48.763Z,0
2022-11-11T16:59:51.476Z,0
2022-11-11T17:01:58.265Z,0
2022-11-11T17:04:04.232Z,0
2022-11-11T17:06:10.155Z,0
2022-11-11T17:07:21.650Z,0
2022-11-11T17:09:28.140Z,0
2022-11-11T17:11:34.966Z,0
2022-11-11T17:13:44.847Z,0
2022-11-11T17:14:47.562Z,0
2022-11-11T17:16:54.196Z,0
2022-11-11T17:19:00.360Z,0
2022-11-11T17:20:02.990Z,0
2022-11-11T17:21:05.454Z,0
2022-11-11T17:22:08.633Z,0
2022-11-11T17:24:14.185Z,0
2022-11-11T17:25:17.542Z,0
2022-11-11T17:26:20.748Z,0
2022-11-11T17:27:24.343Z,0
2022-11-11T17:29:40.456Z,0
2022-11-11T17:31:45.750Z,0
2022-11-11T17:32:49.124Z,0
2022-11-11T17:34:56.327Z,0
2022-11-11T17:37:03.504Z,0
2022-11-11T17:39:09.977Z,0
2022-11-11T17:40:12.575Z,0
2022-11-11T17:42:18.586Z,0
2022-11-11T17:44:26.067Z,0
2022-11-11T17:46:32.136Z,0
2022-11-11T17:47:44.582Z,0
2022-11-11T17:48:47.760Z,0
2022-11-11T17:49:59.220Z,0
2022-11-11T17:52:05.550Z,0
2022-11-11T17:53:18.105Z,0
2022-11-11T17:54:20.908Z,0
2022-11-11T17:55:23.784Z,0
2022-11-11T17:56:27.157Z,0
2022-11-11T17:57:30.343Z,0
2022-11-11T17:58:43.403Z,0
2022-11-11T17:59:46.853Z,0
2022-11-11T18:01:54.281Z,0
2022-11-11T18:04:00.090Z,0
2022-11-11T18:05:02.903Z,0
2022-11-11T18:07:09.989Z,0
2022-11-11T18:09:16.230Z,0
2022-11-11T18:11:21.951Z,0
2022-11-11T18:12:25.106Z,0
2022-11-11T18:14:33.181Z,0
2022-11-11T18:16:39.269Z,0
2022-11-11T18:18:45.153Z,0
2022-11-11T18:19:47.695Z,0
2022-11-11T18:21:54.125Z,0
2022-11-11T18:24:00.906Z,0
2022-11-11T18:26:06.123Z,0
2022-11-11T18:27:09.501Z,0
2022-11-11T18:29:15.354Z,0
2022-11-11T18:31:22.272Z,0
2022-11-11T18:33:29.546Z,0
2022-11-11T18:34:32.904Z,0
2022-11-11T18:36:39.664Z,0
2022-11-11T18:37:49.162Z,0
2022-11-11T18:38:51.687Z,0
2022-11-11T18:40:58.208Z,0
2022-11-11T18:42:01.392Z,0
2022-11-11T18:43:03.638Z,0
2022-11-11T18:44:06.431Z,0
2022-11-11T18:46:12.809Z,0
2022-11-11T18:47:16.522Z,0
2022-11-11T18:48:18.962Z,0
2022-11-11T18:49:22.610Z,0
2022-11-11T18:51:28.878Z,0
2022-11-11T18:52:31.530Z,0
2022-11-11T18:53:35.113Z,0
2022-11-11T18:54:38.115Z,0
2022-11-11T18:56:44.070Z,0
2022-11-11T18:58:49.754Z,0
2022-11-11T18:59:52.572Z,0
2022-11-11T19:01:59.818Z,0
2022-11-11T19:04:07.199Z,0
2022-11-11T19:06:13.502Z,0
2022-11-11T19:07:17.009Z,0
2022-11-11T19:09:23.620Z,0
2022-11-11T19:11:29.692Z,0
2022-11-11T19:13:36.379Z,0
2022-11-11T19:14:38.824Z,0
2022-11-11T19:16:45.317Z,0
2022-11-11T19:18:52.183Z,0
2022-11-11T19:20:59.440Z,0
2022-11-11T19:22:02.453Z,0
2022-11-11T19:24:08.832Z,0
2022-11-11T19:26:15.721Z,0
2022-11-11T19:28:21.854Z,0
2022-11-11T19:29:24.649Z,0
2022-11-11T19:31:30.427Z,0
2022-11-11T19:33:36.864Z,0
2022-11-11T19:35:43.279Z,0
2022-11-11T19:36:46.356Z,0
2022-11-11T19:38:52.057Z,0
2022-11-11T19:40:58.640Z,0
2022-11-11T19:43:04.458Z,0
2022-11-11T19:44:07.531Z,0
2022-11-11T19:46:13.744Z,0
2022-11-11T19:48:20.587Z,0
2022-11-11T19:50:27.573Z,0
2022-11-11T19:51:30.398Z,0
2022-11-11T19:52:33.197Z,0
2022-11-11T19:53:35.916Z,0
2022-11-11T19:55:42.784Z,0
2022-11-11T19:57:49.274Z,0
2022-11-11T19:58:52.426Z,0
2022-11-11T19:59:54.385Z,0
2022-11-11T20:00:58.017Z,0
2022-11-11T20:03:04.681Z,0
2022-11-11T20:04:07.601Z,0
2022-11-11T20:05:11.194Z,0
2022-11-11T20:06:14.084Z,0
2022-11-11T20:08:21.214Z,0
2022-11-11T20:09:24.107Z,0
2022-11-11T20:10:26.357Z,0
2022-11-11T20:11:29.401Z,0
2022-11-11T20:13:44.711Z,0
2022-11-11T20:15:50.705Z,0
2022-11-11T20:16:54.414Z,0
2022-11-11T20:19:00.369Z,0
2022-11-11T20:21:05.974Z,0
2022-11-11T20:23:13.236Z,0
2022-11-11T20:24:16.938Z,0
2022-11-11T20:26:24.096Z,0
2022-11-11T20:28:30.464Z,0
2022-11-11T20:30:36.437Z,0
2022-11-11T20:31:39.633Z,0
2022-11-11T20:32:42.429Z,0
2022-11-11T20:33:45.797Z,0
2022-11-11T20:35:51.853Z,0
2022-11-11T20:36:55.176Z,0
2022-11-11T20:37:58.618Z,0
2022-11-11T20:39:01.621Z,0
2022-11-11T20:41:08.409Z,0
2022-11-11T20:42:11.745Z,0
2022-11-11T20:43:15.353Z,0
2022-11-11T20:44:18.583Z,0
2022-11-11T20:46:24.221Z,0
2022-11-11T20:47:35.729Z,0
2022-11-11T20:48:38.522Z,0
2022-11-11T20:49:41.892Z,0
2022-11-11T20:51:48.088Z,0
2022-11-11T20:53:55.006Z,0
2022-11-11T20:56:00.679Z,0
2022-11-11T20:57:03.785Z,0
2022-11-11T20:59:10.733Z,0
2022-11-11T21:01:17.196Z,0
2022-11-11T21:02:25.882Z,0
2022-11-11T21:03:30.196Z,0
2022-11-11T21:04:33.201Z,0
2022-11-11T21:06:38.904Z,0
2022-11-11T21:08:44.809Z,0
2022-11-11T21:10:50.947Z,0
2022-11-11T21:11:53.665Z,0
2022-11-11T21:13:59.836Z,0
2022-11-11T21:16:06.649Z,0
2022-11-11T21:18:11.996Z,0
2022-11-11T21:19:15.085Z,0
2022-11-11T21:21:21.266Z,0
2022-11-11T21:23:29.545Z,0
2022-11-11T21:25:36.084Z,0
2022-11-11T21:26:39.436Z,0
2022-11-11T21:28:45.432Z,0
2022-11-11T21:30:51.098Z,0
2022-11-11T21:32:55.807Z,0
2022-11-11T21:33:59.259Z,0
2022-11-11T21:36:08.311Z,0
2022-11-11T21:38:14.503Z,0
2022-11-11T21:40:20.737Z,0
2022-11-11T21:41:24.191Z,0
2022-11-11T21:43:30.742Z,0
2022-11-11T21:45:36.376Z,0
2022-11-11T21:47:42.459Z,0
2022-11-11T21:48:45.186Z,0
2022-11-11T21:50:51.314Z,0
2022-11-11T21:52:57.568Z,0
2022-11-11T21:54:04.994Z,0
2022-11-11T21:55:07.887Z,0
2022-11-11T21:56:11.286Z,0
2022-11-11T21:58:17.722Z,0
2022-11-11T22:00:23.768Z,0
2022-11-11T22:01:32.974Z,0
2022-11-11T22:02:36.575Z,0
2022-11-11T22:03:40.435Z,0
2022-11-11T22:05:46.032Z,0
2022-11-11T22:07:52.365Z,0
2022-11-11T22:08:55.444Z,0
2022-11-11T22:11:00.630Z,0
2022-11-11T22:13:07.743Z,0
2022-11-11T22:15:13.859Z,0
2022-11-11T22:16:16.454Z,0
2022-11-11T22:18:25.175Z,0
2022-11-11T22:20:31.505Z,0
2022-11-11T22:22:36.835Z,0
2022-11-11T22:23:39.627Z,0
2022-11-11T22:25:45.815Z,0
2022-11-11T22:27:53.258Z,0
2022-11-11T22:28:56.762Z,0
2022-11-11T22:29:59.566Z,0
2022-11-11T22:31:02.385Z,0
2022-11-11T22:33:08.272Z,0
2022-11-11T22:34:12.128Z,0
2022-11-11T22:35:15.980Z,0
2022-11-11T22:36:19.053Z,0
2022-11-11T22:38:26.039Z,0
2022-11-11T22:40:31.743Z,0
2022-11-11T22:41:34.878Z,0
2022-11-11T22:44:12.262Z,0
2022-11-11T22:46:20.287Z,0
2022-11-11T22:48:28.255Z,0
2022-11-11T22:50:34.787Z,0
2022-11-11T22:51:37.328Z,0
2022-11-11T22:52:40.224Z,0
2022-11-11T22:53:43.293Z,0
2022-11-11T22:55:49.199Z,0
2022-11-11T22:56:52.198Z,0
2022-11-11T22:57:55.396Z,0
2022-11-11T22:58:58.080Z,0
2022-11-11T23:01:04.865Z,0
2022-11-11T23:03:11.803Z,0
2022-11-11T23:04:14.529Z,0
2022-11-11T23:05:17.270Z,0
2022-11-11T23:06:20.761Z,0
2022-11-11T23:08:28.989Z,0
2022-11-11T23:09:31.832Z,0
2022-11-11T23:10:35.281Z,0
2022-11-11T23:11:38.347Z,0
2022-11-11T23:13:44.993Z,0
2022-11-11T23:15:51.318Z,0
2022-11-11T23:16:55.476Z,0
2022-11-11T23:19:01.745Z,0
2022-11-11T23:21:07.786Z,0
2022-11-11T23:23:14.166Z,0
2022-11-11T23:24:17.502Z,0
2022-11-11T23:26:23.766Z,0
2022-11-11T23:28:30.713Z,0
2022-11-11T23:30:36.910Z,0
2022-11-11T23:31:39.738Z,0
2022-11-11T23:33:45.566Z,0
2022-11-11T23:35:52.002Z,0
2022-11-11T23:37:58.988Z,0
2022-11-11T23:39:02.425Z,0
2022-11-11T23:41:07.697Z,0
2022-11-11T23:43:13.279Z,0
2022-11-11T23:45:18.242Z,0
2022-11-11T23:46:22.017Z,0
2022-11-11T23:48:30.180Z,0
2022-11-11T23:50:36.585Z,0
2022-11-11T23:52:42.761Z,0